Calvin, Illinois
Current Conditions -  °F | °C
As of 6:35 AM on Wednesday 26 Nov 2014 (Local Time) from KCUL Reporting Station
Haze Haze  
Wind Chill: 22°   Ceiling: 700
Heat Index: 22°   Visibility: 1.2mi
Dew Point: 22°   Wind: 0mph
Humidity: 100%   Direction: NA
Pressure: 30.15"   Gusts: NA
Location:  38.1681°N, 88.0517°W
Report Text: KCUL 261235Z AUTO 00000KT 1 1/4SM BR VV007 M05/M05 A3015 RMK AO2 VIS 1/2V5 T10531053
Loading
Personal Weather Stations






























Interactive Weather Map New forecast layout! Learn more

10-Day Weather Forecast

Advertisements
Track Severe Weather on mobile